sensor_id;sensor_type;location;lat;lon;timestamp;P1;durP1;ratioP1;P2;durP2;ratioP2
62509;SDS011;48558;48.242;11.654;2023-07-29T00:03:35;5.28;;;2.25;;
62509;SDS011;48558;48.242;11.654;2023-07-29T00:07:47;2.83;;;2.50;;
62509;SDS011;48558;48.242;11.654;2023-07-29T00:12:00;2.60;;;2.40;;
62509;SDS011;48558;48.242;11.654;2023-07-29T00:16:12;3.75;;;2.63;;
62509;SDS011;48558;48.242;11.654;2023-07-29T00:20:27;2.55;;;2.30;;
62509;SDS011;48558;48.242;11.654;2023-07-29T00:24:40;3.67;;;2.70;;
62509;SDS011;48558;48.242;11.654;2023-07-29T00:28:53;2.72;;;2.47;;
62509;SDS011;48558;48.242;11.654;2023-07-29T00:33:06;2.75;;;2.20;;
62509;SDS011;48558;48.242;11.654;2023-07-29T00:37:19;3.45;;;2.50;;
62509;SDS011;48558;48.242;11.654;2023-07-29T00:41:31;5.20;;;2.55;;
62509;SDS011;48558;48.242;11.654;2023-07-29T00:45:44;2.70;;;2.10;;
62509;SDS011;48558;48.242;11.654;2023-07-29T00:49:57;4.45;;;2.50;;
62509;SDS011;48558;48.242;11.654;2023-07-29T00:54:09;3.10;;;2.25;;
62509;SDS011;48558;48.242;11.654;2023-07-29T00:58:22;2.55;;;2.35;;
62509;SDS011;48558;48.242;11.654;2023-07-29T01:02:35;2.38;;;2.17;;
62509;SDS011;48558;48.242;11.654;2023-07-29T01:06:53;1.80;;;1.70;;
62509;SDS011;48558;48.242;11.654;2023-07-29T01:15:58;1.92;;;1.83;;
62509;SDS011;48558;48.242;11.654;2023-07-29T01:20:25;6.18;;;1.88;;
62509;SDS011;48558;48.242;11.654;2023-07-29T01:24:39;2.28;;;2.08;;
62509;SDS011;48558;48.242;11.654;2023-07-29T01:28:52;1.92;;;1.83;;
62509;SDS011;48558;48.242;11.654;2023-07-29T01:33:09;3.30;;;1.85;;
62509;SDS011;48558;48.242;11.654;2023-07-29T01:37:32;3.80;;;2.20;;
62509;SDS011;48558;48.242;11.654;2023-07-29T01:41:46;2.00;;;1.88;;
62509;SDS011;48558;48.242;11.654;2023-07-29T01:46:00;3.78;;;2.45;;
62509;SDS011;48558;48.242;11.654;2023-07-29T01:50:14;3.75;;;1.90;;
62509;SDS011;48558;48.242;11.654;2023-07-29T01:54:26;6.00;;;2.40;;
62509;SDS011;48558;48.242;11.654;2023-07-29T01:58:39;2.33;;;2.03;;
62509;SDS011;48558;48.242;11.654;2023-07-29T02:02:51;2.65;;;2.45;;
62509;SDS011;48558;48.242;11.654;2023-07-29T02:07:04;2.45;;;2.25;;
62509;SDS011;48558;48.242;11.654;2023-07-29T02:11:16;2.22;;;1.85;;
62509;SDS011;48558;48.242;11.654;2023-07-29T02:15:29;3.08;;;1.98;;
62509;SDS011;48558;48.242;11.654;2023-07-29T02:19:42;2.58;;;1.92;;
62509;SDS011;48558;48.242;11.654;2023-07-29T02:23:54;1.90;;;1.80;;
62509;SDS011;48558;48.242;11.654;2023-07-29T02:28:07;2.22;;;2.03;;
62509;SDS011;48558;48.242;11.654;2023-07-29T02:32:22;2.08;;;1.92;;
62509;SDS011;48558;48.242;11.654;2023-07-29T02:36:35;3.22;;;2.20;;
62509;SDS011;48558;48.242;11.654;2023-07-29T02:40:48;2.50;;;2.30;;
62509;SDS011;48558;48.242;11.654;2023-07-29T02:45:01;3.33;;;1.92;;
62509;SDS011;48558;48.242;11.654;2023-07-29T02:49:14;3.28;;;1.70;;
62509;SDS011;48558;48.242;11.654;2023-07-29T02:53:26;1.83;;;1.67;;
62509;SDS011;48558;48.242;11.654;2023-07-29T02:57:39;1.80;;;1.70;;
62509;SDS011;48558;48.242;11.654;2023-07-29T03:01:51;1.77;;;1.67;;
62509;SDS011;48558;48.242;11.654;2023-07-29T03:06:06;2.05;;;1.85;;
62509;SDS011;48558;48.242;11.654;2023-07-29T03:10:21;3.05;;;1.98;;
62509;SDS011;48558;48.242;11.654;2023-07-29T03:14:34;2.78;;;2.00;;
62509;SDS011;48558;48.242;11.654;2023-07-29T03:18:47;3.97;;;2.28;;
62509;SDS011;48558;48.242;11.654;2023-07-29T03:23:00;2.53;;;2.15;;
62509;SDS011;48558;48.242;11.654;2023-07-29T03:27:13;2.30;;;2.10;;
62509;SDS011;48558;48.242;11.654;2023-07-29T03:31:27;2.95;;;2.30;;
62509;SDS011;48558;48.242;11.654;2023-07-29T03:35:40;2.28;;;1.73;;
62509;SDS011;48558;48.242;11.654;2023-07-29T03:39:56;6.78;;;2.35;;
62509;SDS011;48558;48.242;11.654;2023-07-29T03:44:09;2.10;;;1.95;;
62509;SDS011;48558;48.242;11.654;2023-07-29T03:48:22;2.50;;;2.30;;
62509;SDS011;48558;48.242;11.654;2023-07-29T03:52:34;5.47;;;2.03;;
62509;SDS011;48558;48.242;11.654;2023-07-29T03:56:47;2.47;;;2.13;;
62509;SDS011;48558;48.242;11.654;2023-07-29T04:00:59;2.33;;;1.85;;
62509;SDS011;48558;48.242;11.654;2023-07-29T04:05:12;2.92;;;2.10;;
62509;SDS011;48558;48.242;11.654;2023-07-29T04:09:25;2.10;;;1.90;;
62509;SDS011;48558;48.242;11.654;2023-07-29T04:13:37;4.30;;;2.05;;
62509;SDS011;48558;48.242;11.654;2023-07-29T04:17:50;2.90;;;1.70;;
62509;SDS011;48558;48.242;11.654;2023-07-29T04:22:03;1.90;;;1.80;;
62509;SDS011;48558;48.242;11.654;2023-07-29T04:26:16;2.35;;;1.90;;
62509;SDS011;48558;48.242;11.654;2023-07-29T04:30:28;2.20;;;2.00;;
62509;SDS011;48558;48.242;11.654;2023-07-29T04:34:41;1.90;;;1.80;;
62509;SDS011;48558;48.242;11.654;2023-07-29T04:38:53;1.80;;;1.70;;
62509;SDS011;48558;48.242;11.654;2023-07-29T04:43:06;1.75;;;1.65;;
62509;SDS011;48558;48.242;11.654;2023-07-29T04:47:18;1.80;;;1.70;;
62509;SDS011;48558;48.242;11.654;2023-07-29T04:51:31;4.28;;;2.08;;
62509;SDS011;48558;48.242;11.654;2023-07-29T04:55:44;1.77;;;1.67;;
62509;SDS011;48558;48.242;11.654;2023-07-29T04:59:57;3.58;;;1.67;;
62509;SDS011;48558;48.242;11.654;2023-07-29T05:04:10;3.20;;;2.50;;
62509;SDS011;48558;48.242;11.654;2023-07-29T05:08:22;3.67;;;1.60;;
62509;SDS011;48558;48.242;11.654;2023-07-29T05:12:35;2.00;;;1.90;;
62509;SDS011;48558;48.242;11.654;2023-07-29T05:16:47;2.00;;;1.90;;
62509;SDS011;48558;48.242;11.654;2023-07-29T05:21:01;2.13;;;1.83;;
62509;SDS011;48558;48.242;11.654;2023-07-29T05:25:13;2.15;;;1.95;;
62509;SDS011;48558;48.242;11.654;2023-07-29T05:29:26;2.00;;;1.52;;
62509;SDS011;48558;48.242;11.654;2023-07-29T05:33:38;1.52;;;1.42;;
62509;SDS011;48558;48.242;11.654;2023-07-29T05:37:51;1.70;;;1.60;;
62509;SDS011;48558;48.242;11.654;2023-07-29T05:42:04;3.60;;;1.75;;
62509;SDS011;48558;48.242;11.654;2023-07-29T05:46:17;1.60;;;1.50;;
62509;SDS011;48558;48.242;11.654;2023-07-29T05:50:30;1.70;;;1.60;;
62509;SDS011;48558;48.242;11.654;2023-07-29T05:54:42;2.78;;;1.45;;
62509;SDS011;48558;48.242;11.654;2023-07-29T05:58:55;1.50;;;1.40;;
62509;SDS011;48558;48.242;11.654;2023-07-29T06:03:07;2.55;;;1.60;;
62509;SDS011;48558;48.242;11.654;2023-07-29T06:07:20;1.42;;;1.23;;
62509;SDS011;48558;48.242;11.654;2023-07-29T06:11:33;1.48;;;1.38;;
62509;SDS011;48558;48.242;11.654;2023-07-29T06:15:45;1.60;;;1.50;;
62509;SDS011;48558;48.242;11.654;2023-07-29T06:19:58;1.40;;;1.30;;
62509;SDS011;48558;48.242;11.654;2023-07-29T06:24:10;2.85;;;1.60;;
62509;SDS011;48558;48.242;11.654;2023-07-29T06:28:23;2.25;;;1.45;;
62509;SDS011;48558;48.242;11.654;2023-07-29T06:32:36;1.67;;;1.58;;
62509;SDS011;48558;48.242;11.654;2023-07-29T06:36:48;1.40;;;1.30;;
62509;SDS011;48558;48.242;11.654;2023-07-29T06:41:01;1.30;;;1.20;;
62509;SDS011;48558;48.242;11.654;2023-07-29T06:45:13;1.45;;;1.33;;
62509;SDS011;48558;48.242;11.654;2023-07-29T06:49:27;1.10;;;1.10;;
62509;SDS011;48558;48.242;11.654;2023-07-29T06:53:40;1.02;;;1.02;;
62509;SDS011;48558;48.242;11.654;2023-07-29T06:57:52;1.73;;;1.20;;
62509;SDS011;48558;48.242;11.654;2023-07-29T07:02:06;2.13;;;1.20;;
62509;SDS011;48558;48.242;11.654;2023-07-29T07:06:19;1.67;;;1.42;;
62509;SDS011;48558;48.242;11.654;2023-07-29T07:10:33;3.33;;;1.60;;
62509;SDS011;48558;48.242;11.654;2023-07-29T07:14:46;5.82;;;1.80;;
62509;SDS011;48558;48.242;11.654;2023-07-29T07:18:58;2.10;;;1.65;;
62509;SDS011;48558;48.242;11.654;2023-07-29T07:23:11;3.10;;;2.03;;
62509;SDS011;48558;48.242;11.654;2023-07-29T07:27:25;2.20;;;2.00;;
62509;SDS011;48558;48.242;11.654;2023-07-29T07:31:37;4.22;;;2.20;;
62509;SDS011;48558;48.242;11.654;2023-07-29T07:35:50;2.45;;;2.00;;
62509;SDS011;48558;48.242;11.654;2023-07-29T07:40:03;2.20;;;1.60;;
62509;SDS011;48558;48.242;11.654;2023-07-29T07:44:16;1.75;;;1.65;;
62509;SDS011;48558;48.242;11.654;2023-07-29T07:48:31;2.88;;;1.88;;
62509;SDS011;48558;48.242;11.654;2023-07-29T07:52:45;2.63;;;2.20;;
62509;SDS011;48558;48.242;11.654;2023-07-29T07:56:57;3.90;;;1.95;;
62509;SDS011;48558;48.242;11.654;2023-07-29T08:01:10;1.70;;;1.60;;
62509;SDS011;48558;48.242;11.654;2023-07-29T08:05:23;2.45;;;1.75;;
62509;SDS011;48558;48.242;11.654;2023-07-29T08:09:36;2.25;;;1.60;;
62509;SDS011;48558;48.242;11.654;2023-07-29T08:13:48;8.95;;;1.80;;
62509;SDS011;48558;48.242;11.654;2023-07-29T08:18:01;2.00;;;1.80;;
62509;SDS011;48558;48.242;11.654;2023-07-29T08:22:13;2.25;;;1.70;;
62509;SDS011;48558;48.242;11.654;2023-07-29T08:26:26;1.83;;;1.73;;
62509;SDS011;48558;48.242;11.654;2023-07-29T08:30:43;1.80;;;1.70;;
62509;SDS011;48558;48.242;11.654;2023-07-29T08:34:56;2.17;;;1.98;;
62509;SDS011;48558;48.242;11.654;2023-07-29T08:39:08;3.22;;;1.95;;
62509;SDS011;48558;48.242;11.654;2023-07-29T08:43:21;3.53;;;2.08;;
62509;SDS011;48558;48.242;11.654;2023-07-29T08:47:44;2.15;;;1.95;;
62509;SDS011;48558;48.242;11.654;2023-07-29T08:51:57;2.17;;;1.70;;
62509;SDS011;48558;48.242;11.654;2023-07-29T08:56:10;1.90;;;1.80;;
62509;SDS011;48558;48.242;11.654;2023-07-29T09:00:22;2.53;;;1.60;;
62509;SDS011;48558;48.242;11.654;2023-07-29T09:04:35;1.70;;;1.60;;
62509;SDS011;48558;48.242;11.654;2023-07-29T09:08:49;2.03;;;1.83;;
62509;SDS011;48558;48.242;11.654;2023-07-29T09:13:04;2.17;;;1.98;;
62509;SDS011;48558;48.242;11.654;2023-07-29T09:17:18;2.05;;;1.88;;
62509;SDS011;48558;48.242;11.654;2023-07-29T09:21:33;2.38;;;1.98;;
62509;SDS011;48558;48.242;11.654;2023-07-29T09:25:51;2.58;;;2.38;;
62509;SDS011;48558;48.242;11.654;2023-07-29T09:30:15;2.20;;;1.85;;
62509;SDS011;48558;48.242;11.654;2023-07-29T09:34:29;2.33;;;1.77;;
62509;SDS011;48558;48.242;11.654;2023-07-29T09:38:42;2.13;;;1.92;;
62509;SDS011;48558;48.242;11.654;2023-07-29T09:42:56;3.08;;;2.10;;
62509;SDS011;48558;48.242;11.654;2023-07-29T09:47:09;4.65;;;2.10;;
62509;SDS011;48558;48.242;11.654;2023-07-29T09:51:21;2.53;;;2.33;;
62509;SDS011;48558;48.242;11.654;2023-07-29T09:55:34;2.08;;;1.95;;
62509;SDS011;48558;48.242;11.654;2023-07-29T09:59:56;5.50;;;2.03;;
62509;SDS011;48558;48.242;11.654;2023-07-29T10:04:09;2.42;;;2.20;;
62509;SDS011;48558;48.242;11.654;2023-07-29T10:08:24;2.20;;;2.10;;
62509;SDS011;48558;48.242;11.654;2023-07-29T10:12:39;2.75;;;1.90;;
62509;SDS011;48558;48.242;11.654;2023-07-29T10:16:54;2.30;;;2.07;;
62509;SDS011;48558;48.242;11.654;2023-07-29T10:21:09;2.10;;;2.00;;
62509;SDS011;48558;48.242;11.654;2023-07-29T10:25:25;2.88;;;2.00;;
62509;SDS011;48558;48.242;11.654;2023-07-29T10:29:50;2.22;;;2.03;;
62509;SDS011;48558;48.242;11.654;2023-07-29T10:34:07;1.88;;;1.77;;
62509;SDS011;48558;48.242;11.654;2023-07-29T10:38:23;4.10;;;2.20;;
62509;SDS011;48558;48.242;11.654;2023-07-29T10:42:37;2.30;;;2.10;;
62509;SDS011;48558;48.242;11.654;2023-07-29T10:46:50;2.10;;;2.00;;
62509;SDS011;48558;48.242;11.654;2023-07-29T10:55:37;2.35;;;2.22;;
62509;SDS011;48558;48.242;11.654;2023-07-29T10:59:56;2.42;;;2.30;;
62509;SDS011;48558;48.242;11.654;2023-07-29T11:04:25;2.17;;;2.00;;
62509;SDS011;48558;48.242;11.654;2023-07-29T11:08:41;2.35;;;2.00;;
62509;SDS011;48558;48.242;11.654;2023-07-29T11:12:54;1.10;;;1.08;;
62509;SDS011;48558;48.242;11.654;2023-07-29T11:17:06;2.25;;;1.20;;
62509;SDS011;48558;48.242;11.654;2023-07-29T11:21:22;1.75;;;1.65;;
62509;SDS011;48558;48.242;11.654;2023-07-29T11:25:34;2.05;;;1.50;;
62509;SDS011;48558;48.242;11.654;2023-07-29T11:29:48;1.75;;;1.65;;
62509;SDS011;48558;48.242;11.654;2023-07-29T11:34:00;1.67;;;1.58;;
62509;SDS011;48558;48.242;11.654;2023-07-29T11:38:19;1.77;;;1.67;;
62509;SDS011;48558;48.242;11.654;2023-07-29T11:42:34;3.17;;;1.58;;
62509;SDS011;48558;48.242;11.654;2023-07-29T11:46:47;2.03;;;1.92;;
62509;SDS011;48558;48.242;11.654;2023-07-29T11:51:01;1.70;;;1.60;;
62509;SDS011;48558;48.242;11.654;2023-07-29T11:55:15;2.45;;;1.60;;
62509;SDS011;48558;48.242;11.654;2023-07-29T11:59:28;1.30;;;1.30;;
62509;SDS011;48558;48.242;11.654;2023-07-29T12:03:41;3.47;;;1.60;;
62509;SDS011;48558;48.242;11.654;2023-07-29T12:07:55;1.67;;;1.58;;
62509;SDS011;48558;48.242;11.654;2023-07-29T12:12:08;1.88;;;1.77;;
62509;SDS011;48558;48.242;11.654;2023-07-29T12:16:20;1.63;;;1.52;;
62509;SDS011;48558;48.242;11.654;2023-07-29T12:20:33;1.77;;;1.67;;
62509;SDS011;48558;48.242;11.654;2023-07-29T12:24:46;1.90;;;1.60;;
62509;SDS011;48558;48.242;11.654;2023-07-29T12:29:13;1.65;;;1.55;;
62509;SDS011;48558;48.242;11.654;2023-07-29T12:33:34;1.92;;;1.83;;
62509;SDS011;48558;48.242;11.654;2023-07-29T12:38:00;2.00;;;1.90;;
62509;SDS011;48558;48.242;11.654;2023-07-29T12:42:12;2.10;;;2.00;;
62509;SDS011;48558;48.242;11.654;2023-07-29T12:46:28;2.33;;;2.20;;
62509;SDS011;48558;48.242;11.654;2023-07-29T12:50:41;2.70;;;1.58;;
62509;SDS011;48558;48.242;11.654;2023-07-29T12:54:54;2.10;;;1.80;;
62509;SDS011;48558;48.242;11.654;2023-07-29T12:59:07;2.72;;;2.35;;
62509;SDS011;48558;48.242;11.654;2023-07-29T13:03:19;2.60;;;1.92;;
62509;SDS011;48558;48.242;11.654;2023-07-29T13:07:32;2.45;;;2.00;;
62509;SDS011;48558;48.242;11.654;2023-07-29T13:11:44;1.73;;;1.63;;
62509;SDS011;48558;48.242;11.654;2023-07-29T13:15:57;2.08;;;1.98;;
62509;SDS011;48558;48.242;11.654;2023-07-29T13:20:12;2.13;;;2.03;;
62509;SDS011;48558;48.242;11.654;2023-07-29T13:24:26;2.30;;;2.10;;
62509;SDS011;48558;48.242;11.654;2023-07-29T13:28:38;2.60;;;2.40;;
62509;SDS011;48558;48.242;11.654;2023-07-29T13:32:51;2.28;;;2.13;;
62509;SDS011;48558;48.242;11.654;2023-07-29T13:37:03;3.10;;;2.33;;
62509;SDS011;48558;48.242;11.654;2023-07-29T13:41:16;2.70;;;2.50;;
62509;SDS011;48558;48.242;11.654;2023-07-29T13:45:28;3.05;;;2.35;;
62509;SDS011;48558;48.242;11.654;2023-07-29T13:49:41;3.08;;;2.38;;
62509;SDS011;48558;48.242;11.654;2023-07-29T13:53:54;2.55;;;2.17;;
62509;SDS011;48558;48.242;11.654;2023-07-29T13:58:08;2.15;;;2.05;;
62509;SDS011;48558;48.242;11.654;2023-07-29T14:02:20;3.70;;;2.50;;
62509;SDS011;48558;48.242;11.654;2023-07-29T14:06:33;2.75;;;2.40;;
62509;SDS011;48558;48.242;11.654;2023-07-29T14:10:57;2.35;;;2.17;;
62509;SDS011;48558;48.242;11.654;2023-07-29T14:15:10;2.10;;;1.90;;
62509;SDS011;48558;48.242;11.654;2023-07-29T14:19:23;2.42;;;2.20;;
62509;SDS011;48558;48.242;11.654;2023-07-29T14:23:36;2.30;;;2.10;;
62509;SDS011;48558;48.242;11.654;2023-07-29T14:27:48;2.13;;;2.03;;
62509;SDS011;48558;48.242;11.654;2023-07-29T14:32:01;3.38;;;2.13;;
62509;SDS011;48558;48.242;11.654;2023-07-29T14:36:14;2.42;;;2.22;;
62509;SDS011;48558;48.242;11.654;2023-07-29T14:40:27;3.80;;;2.63;;
62509;SDS011;48558;48.242;11.654;2023-07-29T14:44:39;6.45;;;2.60;;
62509;SDS011;48558;48.242;11.654;2023-07-29T14:48:52;5.50;;;2.70;;
62509;SDS011;48558;48.242;11.654;2023-07-29T14:53:04;3.90;;;2.22;;
62509;SDS011;48558;48.242;11.654;2023-07-29T14:57:17;3.10;;;2.50;;
62509;SDS011;48558;48.242;11.654;2023-07-29T15:01:29;2.80;;;2.60;;
62509;SDS011;48558;48.242;11.654;2023-07-29T15:05:42;3.47;;;2.70;;
62509;SDS011;48558;48.242;11.654;2023-07-29T15:09:55;2.92;;;2.70;;
62509;SDS011;48558;48.242;11.654;2023-07-29T15:14:08;5.45;;;2.20;;
62509;SDS011;48558;48.242;11.654;2023-07-29T15:18:21;9.98;;;3.22;;
62509;SDS011;48558;48.242;11.654;2023-07-29T15:22:33;2.50;;;2.25;;
62509;SDS011;48558;48.242;11.654;2023-07-29T15:26:46;2.42;;;1.92;;
62509;SDS011;48558;48.242;11.654;2023-07-29T15:30:59;2.50;;;2.00;;
62509;SDS011;48558;48.242;11.654;2023-07-29T15:35:11;2.17;;;1.70;;
62509;SDS011;48558;48.242;11.654;2023-07-29T15:39:24;1.67;;;1.52;;
62509;SDS011;48558;48.242;11.654;2023-07-29T15:43:37;3.35;;;1.60;;
62509;SDS011;48558;48.242;11.654;2023-07-29T15:47:50;1.88;;;1.75;;
62509;SDS011;48558;48.242;11.654;2023-07-29T15:52:03;3.03;;;1.70;;
62509;SDS011;48558;48.242;11.654;2023-07-29T15:56:16;3.75;;;2.55;;
62509;SDS011;48558;48.242;11.654;2023-07-29T16:00:28;1.33;;;1.20;;
62509;SDS011;48558;48.242;11.654;2023-07-29T16:04:41;5.25;;;1.55;;
62509;SDS011;48558;48.242;11.654;2023-07-29T16:08:54;1.77;;;1.25;;
62509;SDS011;48558;48.242;11.654;2023-07-29T16:13:07;1.50;;;1.40;;
62509;SDS011;48558;48.242;11.654;2023-07-29T16:17:20;2.30;;;1.38;;
62509;SDS011;48558;48.242;11.654;2023-07-29T16:21:32;1.55;;;1.40;;
62509;SDS011;48558;48.242;11.654;2023-07-29T16:25:45;2.22;;;1.42;;
62509;SDS011;48558;48.242;11.654;2023-07-29T16:30:01;1.63;;;1.50;;
62509;SDS011;48558;48.242;11.654;2023-07-29T16:34:16;2.70;;;1.38;;
62509;SDS011;48558;48.242;11.654;2023-07-29T16:38:28;2.00;;;1.58;;
62509;SDS011;48558;48.242;11.654;2023-07-29T16:42:41;2.53;;;1.90;;
62509;SDS011;48558;48.242;11.654;2023-07-29T16:46:54;2.00;;;1.50;;
62509;SDS011;48558;48.242;11.654;2023-07-29T16:51:07;1.60;;;1.50;;
62509;SDS011;48558;48.242;11.654;2023-07-29T16:55:22;1.60;;;1.50;;
62509;SDS011;48558;48.242;11.654;2023-07-29T16:59:34;2.33;;;1.77;;
62509;SDS011;48558;48.242;11.654;2023-07-29T17:03:47;4.03;;;1.70;;
62509;SDS011;48558;48.242;11.654;2023-07-29T17:08:00;3.67;;;2.20;;
62509;SDS011;48558;48.242;11.654;2023-07-29T17:12:13;4.85;;;2.17;;
62509;SDS011;48558;48.242;11.654;2023-07-29T17:16:26;3.72;;;1.90;;
62509;SDS011;48558;48.242;11.654;2023-07-29T17:20:39;4.03;;;2.10;;
62509;SDS011;48558;48.242;11.654;2023-07-29T17:24:51;2.70;;;2.30;;
62509;SDS011;48558;48.242;11.654;2023-07-29T17:29:04;7.35;;;2.20;;
62509;SDS011;48558;48.242;11.654;2023-07-29T17:33:17;2.13;;;2.03;;
62509;SDS011;48558;48.242;11.654;2023-07-29T17:37:30;3.83;;;2.63;;
62509;SDS011;48558;48.242;11.654;2023-07-29T17:41:42;2.40;;;2.20;;
62509;SDS011;48558;48.242;11.654;2023-07-29T17:45:55;4.07;;;2.72;;
62509;SDS011;48558;48.242;11.654;2023-07-29T17:50:08;2.33;;;2.15;;
62509;SDS011;48558;48.242;11.654;2023-07-29T17:54:21;5.00;;;2.35;;
62509;SDS011;48558;48.242;11.654;2023-07-29T17:58:34;2.55;;;2.33;;
62509;SDS011;48558;48.242;11.654;2023-07-29T18:02:47;2.72;;;2.30;;
62509;SDS011;48558;48.242;11.654;2023-07-29T18:07:01;2.97;;;2.55;;
62509;SDS011;48558;48.242;11.654;2023-07-29T18:11:13;3.90;;;2.45;;
62509;SDS011;48558;48.242;11.654;2023-07-29T18:15:26;8.40;;;2.55;;
62509;SDS011;48558;48.242;11.654;2023-07-29T18:19:39;2.65;;;1.98;;
62509;SDS011;48558;48.242;11.654;2023-07-29T18:23:54;1.95;;;1.85;;
62509;SDS011;48558;48.242;11.654;2023-07-29T18:28:06;3.58;;;1.98;;
62509;SDS011;48558;48.242;11.654;2023-07-29T18:32:20;3.38;;;2.17;;
62509;SDS011;48558;48.242;11.654;2023-07-29T18:36:33;2.30;;;2.10;;
62509;SDS011;48558;48.242;11.654;2023-07-29T18:40:46;3.22;;;2.60;;
62509;SDS011;48558;48.242;11.654;2023-07-29T18:44:59;2.67;;;2.35;;
62509;SDS011;48558;48.242;11.654;2023-07-29T18:49:11;2.47;;;2.30;;
62509;SDS011;48558;48.242;11.654;2023-07-29T18:53:24;2.78;;;2.58;;
62509;SDS011;48558;48.242;11.654;2023-07-29T18:57:38;2.88;;;2.20;;
62509;SDS011;48558;48.242;11.654;2023-07-29T19:01:51;2.00;;;1.90;;
62509;SDS011;48558;48.242;11.654;2023-07-29T19:06:04;4.07;;;1.95;;
62509;SDS011;48558;48.242;11.654;2023-07-29T19:10:16;4.88;;;2.22;;
62509;SDS011;48558;48.242;11.654;2023-07-29T19:14:29;2.92;;;1.90;;
62509;SDS011;48558;48.242;11.654;2023-07-29T19:18:42;3.42;;;2.25;;
62509;SDS011;48558;48.242;11.654;2023-07-29T19:22:54;2.30;;;2.10;;
62509;SDS011;48558;48.242;11.654;2023-07-29T19:27:07;2.05;;;1.95;;
62509;SDS011;48558;48.242;11.654;2023-07-29T19:31:20;2.15;;;1.80;;
62509;SDS011;48558;48.242;11.654;2023-07-29T19:35:33;3.15;;;1.63;;
62509;SDS011;48558;48.242;11.654;2023-07-29T19:39:46;1.70;;;1.60;;
62509;SDS011;48558;48.242;11.654;2023-07-29T19:43:58;1.80;;;1.70;;
62509;SDS011;48558;48.242;11.654;2023-07-29T19:48:31;1.85;;;1.75;;
62509;SDS011;48558;48.242;11.654;2023-07-29T19:52:43;1.95;;;1.85;;
62509;SDS011;48558;48.242;11.654;2023-07-29T19:56:56;1.95;;;1.80;;
62509;SDS011;48558;48.242;11.654;2023-07-29T20:01:08;2.25;;;1.88;;
62509;SDS011;48558;48.242;11.654;2023-07-29T20:05:21;1.65;;;1.55;;
62509;SDS011;48558;48.242;11.654;2023-07-29T20:09:34;2.05;;;1.50;;
62509;SDS011;48558;48.242;11.654;2023-07-29T20:13:46;1.83;;;1.73;;
62509;SDS011;48558;48.242;11.654;2023-07-29T20:17:59;1.63;;;1.52;;
62509;SDS011;48558;48.242;11.654;2023-07-29T20:22:11;1.38;;;1.30;;
62509;SDS011;48558;48.242;11.654;2023-07-29T20:26:24;2.90;;;2.00;;
62509;SDS011;48558;48.242;11.654;2023-07-29T20:30:42;1.63;;;1.53;;
62509;SDS011;48558;48.242;11.654;2023-07-29T20:34:55;1.70;;;1.60;;
62509;SDS011;48558;48.242;11.654;2023-07-29T20:39:08;1.70;;;1.60;;
62509;SDS011;48558;48.242;11.654;2023-07-29T20:43:21;3.20;;;1.85;;
62509;SDS011;48558;48.242;11.654;2023-07-29T20:47:34;2.35;;;1.83;;
62509;SDS011;48558;48.242;11.654;2023-07-29T20:51:48;1.60;;;1.50;;
62509;SDS011;48558;48.242;11.654;2023-07-29T20:56:00;1.80;;;1.70;;
62509;SDS011;48558;48.242;11.654;2023-07-29T21:00:13;1.83;;;1.73;;
62509;SDS011;48558;48.242;11.654;2023-07-29T21:04:26;1.77;;;1.67;;
62509;SDS011;48558;48.242;11.654;2023-07-29T21:08:38;2.42;;;2.20;;
62509;SDS011;48558;48.242;11.654;2023-07-29T21:12:52;2.08;;;1.92;;
62509;SDS011;48558;48.242;11.654;2023-07-29T21:17:04;1.98;;;1.60;;
62509;SDS011;48558;48.242;11.654;2023-07-29T21:21:17;1.98;;;1.70;;
62509;SDS011;48558;48.242;11.654;2023-07-29T21:25:30;5.13;;;2.10;;
62509;SDS011;48558;48.242;11.654;2023-07-29T21:29:42;2.20;;;1.58;;
62509;SDS011;48558;48.242;11.654;2023-07-29T21:33:55;2.53;;;1.65;;
62509;SDS011;48558;48.242;11.654;2023-07-29T21:38:07;2.40;;;1.77;;
62509;SDS011;48558;48.242;11.654;2023-07-29T21:42:39;1.83;;;1.73;;
62509;SDS011;48558;48.242;11.654;2023-07-29T21:46:53;2.00;;;1.70;;
62509;SDS011;48558;48.242;11.654;2023-07-29T21:51:05;3.65;;;2.00;;
62509;SDS011;48558;48.242;11.654;2023-07-29T21:55:18;1.85;;;1.75;;
62509;SDS011;48558;48.242;11.654;2023-07-29T21:59:31;1.98;;;1.80;;
62509;SDS011;48558;48.242;11.654;2023-07-29T22:03:43;3.03;;;1.85;;
62509;SDS011;48558;48.242;11.654;2023-07-29T22:07:56;2.70;;;1.60;;
62509;SDS011;48558;48.242;11.654;2023-07-29T22:12:10;2.38;;;2.05;;
62509;SDS011;48558;48.242;11.654;2023-07-29T22:16:22;1.80;;;1.70;;
62509;SDS011;48558;48.242;11.654;2023-07-29T22:20:37;1.70;;;1.60;;
62509;SDS011;48558;48.242;11.654;2023-07-29T22:24:50;1.75;;;1.55;;
62509;SDS011;48558;48.242;11.654;2023-07-29T22:29:04;1.38;;;1.30;;
62509;SDS011;48558;48.242;11.654;2023-07-29T22:33:17;1.77;;;1.67;;
62509;SDS011;48558;48.242;11.654;2023-07-29T22:37:30;1.50;;;1.40;;
62509;SDS011;48558;48.242;11.654;2023-07-29T22:41:42;1.50;;;1.40;;
62509;SDS011;48558;48.242;11.654;2023-07-29T22:45:55;1.65;;;1.58;;
62509;SDS011;48558;48.242;11.654;2023-07-29T22:50:10;1.92;;;1.83;;
62509;SDS011;48558;48.242;11.654;2023-07-29T22:54:23;1.60;;;1.50;;
62509;SDS011;48558;48.242;11.654;2023-07-29T22:58:35;7.53;;;1.88;;
62509;SDS011;48558;48.242;11.654;2023-07-29T23:02:48;1.45;;;1.45;;
62509;SDS011;48558;48.242;11.654;2023-07-29T23:07:01;1.60;;;1.50;;
62509;SDS011;48558;48.242;11.654;2023-07-29T23:11:13;1.20;;;1.20;;
62509;SDS011;48558;48.242;11.654;2023-07-29T23:15:26;1.65;;;1.33;;
62509;SDS011;48558;48.242;11.654;2023-07-29T23:19:39;1.42;;;1.33;;
62509;SDS011;48558;48.242;11.654;2023-07-29T23:23:51;1.50;;;1.40;;
62509;SDS011;48558;48.242;11.654;2023-07-29T23:28:04;1.55;;;1.45;;
62509;SDS011;48558;48.242;11.654;2023-07-29T23:32:17;1.67;;;1.50;;
62509;SDS011;48558;48.242;11.654;2023-07-29T23:36:29;4.20;;;1.75;;
62509;SDS011;48558;48.242;11.654;2023-07-29T23:40:42;1.38;;;1.27;;
62509;SDS011;48558;48.242;11.654;2023-07-29T23:44:54;1.70;;;1.33;;
62509;SDS011;48558;48.242;11.654;2023-07-29T23:49:07;1.15;;;1.15;;
62509;SDS011;48558;48.242;11.654;2023-07-29T23:53:19;1.45;;;1.40;;
62509;SDS011;48558;48.242;11.654;2023-07-29T23:57:32;1.70;;;1.60;;
